Date,TemperatureHighF,TemperatureAvgF,TemperatureLowF,DewpointHighF,DewpointAvgF,DewpointLowF,HumidityHigh,HumidityAvg,HumidityLow,PressureMaxIn,PressureMinIn,WindSpeedMaxMPH,WindSpeedAvgMPH,GustSpeedMaxMPH,PrecipitationSumIn
2013-5-1,72.6,67.4,62.4,63.0,60.9,59.0,91,80,67,30.16,30.08,8,2,14,0.00
2013-5-2,72.4,68.1,64.7,66.0,64.2,61.0,94,87,77,30.12,30.05,13,5,23,0.22
2013-5-3,69.9,66.4,62.6,64.0,61.7,60.0,91,85,79,30.07,29.97,14,5,22,0.00
2013-5-4,64.6,62.5,61.2,61.0,59.9,59.0,93,90,88,29.94,29.92,11,6,22,0.09
2013-5-5,70.5,66.7,61.0,68.0,64.2,60.0,96,91,85,29.84,29.77,14,5,27,0.40
2013-5-6,71.8,65.5,57.7,60.0,51.1,46.0,96,61,42,29.94,29.84,12,3,12,0.01
2013-5-7,72.6,65.4,59.3,62.0,56.3,52.0,89,73,53,29.98,29.90,7,2,17,0.17
2013-5-8,78.5,68.9,59.1,63.0,57.8,53.0,86,69,47,30.06,29.97,6,2,10,0.00
2013-5-9,85.2,72.8,63.6,68.0,62.9,59.0,92,73,52,30.10,30.03,5,2,10,0.00
2013-5-19,74.7,73.8,73.2,72.0,71.9,71.0,94,93,91,30.08,30.04,4,1,6,0.05
2013-5-20,83.2,77.9,72.7,75.0,72.4,70.0,95,83,71,30.11,30.03,9,2,13,0.01
2013-5-21,81.1,76.3,72.2,74.0,71.7,69.0,95,86,75,30.07,29.98,9,3,14,0.00
2013-5-22,84.9,78.7,71.5,73.0,70.7,69.0,95,77,66,30.01,29.92,9,3,15,0.00
2013-5-23,88.9,80.1,72.9,73.0,71.3,69.0,91,75,60,29.95,29.86,7,2,10,0.00
2013-5-24,81.3,77.2,74.0,62.0,60.9,59.0,64,58,47,29.99,29.95,7,4,14,0.00
2013-5-25,77.5,73.1,65.8,57.0,50.7,45.0,71,47,34,30.27,30.19,6,1,10,0.00
2013-5-26,85.2,74.1,66.0,66.0,60.9,57.0,77,64,44,30.26,30.16,8,2,12,0.00
2013-5-27,83.0,78.1,73.2,68.0,65.7,64.0,76,66,53,30.24,30.16,7,3,12,0.00
2013-5-28,82.0,78.1,72.6,69.0,67.2,66.0,87,69,59,30.24,30.17,13,5,18,0.00
2013-5-29,81.3,77.2,72.4,69.0,67.9,67.0,87,74,63,30.24,30.17,11,5,16,0.00
2013-5-30,84.2,79.9,75.3,73.0,72.1,71.0,89,77,66,30.23,30.16,12,6,15,0.00
2013-5-31,81.0,76.9,73.9,73.0,72.2,71.0,92,85,77,30.20,30.14,8,4,13,0.00